sensor_id;sensor_type;location;lat;lon;timestamp;P1;durP1;ratioP1;P2;durP2;ratioP2
10116;SDS011;5098;48.792;9.012;2023-04-03T00:01:07;4.63;;;2.60;;
10116;SDS011;5098;48.792;9.012;2023-04-03T00:03:33;3.55;;;2.63;;
10116;SDS011;5098;48.792;9.012;2023-04-03T00:05:59;7.00;;;3.10;;
10116;SDS011;5098;48.792;9.012;2023-04-03T00:08:25;3.55;;;2.55;;
10116;SDS011;5098;48.792;9.012;2023-04-03T00:10:52;3.05;;;2.75;;
10116;SDS011;5098;48.792;9.012;2023-04-03T00:13:18;2.30;;;2.10;;
10116;SDS011;5098;48.792;9.012;2023-04-03T00:15:44;3.25;;;2.80;;
10116;SDS011;5098;48.792;9.012;2023-04-03T00:18:10;3.47;;;3.17;;
10116;SDS011;5098;48.792;9.012;2023-04-03T00:20:36;4.80;;;2.90;;
10116;SDS011;5098;48.792;9.012;2023-04-03T00:23:02;3.47;;;3.15;;
10116;SDS011;5098;48.792;9.012;2023-04-03T00:25:29;2.60;;;2.00;;
10116;SDS011;5098;48.792;9.012;2023-04-03T00:27:55;3.75;;;2.95;;
10116;SDS011;5098;48.792;9.012;2023-04-03T00:30:23;3.10;;;2.70;;
10116;SDS011;5098;48.792;9.012;2023-04-03T00:32:50;3.50;;;2.80;;
10116;SDS011;5098;48.792;9.012;2023-04-03T00:35:17;4.35;;;2.88;;
10116;SDS011;5098;48.792;9.012;2023-04-03T00:37:43;3.22;;;2.90;;
10116;SDS011;5098;48.792;9.012;2023-04-03T00:40:10;2.97;;;2.67;;
10116;SDS011;5098;48.792;9.012;2023-04-03T00:42:37;3.65;;;2.78;;
10116;SDS011;5098;48.792;9.012;2023-04-03T00:47:29;4.53;;;3.45;;
10116;SDS011;5098;48.792;9.012;2023-04-03T00:49:56;5.32;;;3.22;;
10116;SDS011;5098;48.792;9.012;2023-04-03T00:52:23;3.58;;;3.20;;
10116;SDS011;5098;48.792;9.012;2023-04-03T00:54:51;3.05;;;2.60;;
10116;SDS011;5098;48.792;9.012;2023-04-03T00:57:20;3.20;;;2.72;;
10116;SDS011;5098;48.792;9.012;2023-04-03T00:59:49;2.67;;;2.45;;
10116;SDS011;5098;48.792;9.012;2023-04-03T01:02:19;3.53;;;3.22;;
10116;SDS011;5098;48.792;9.012;2023-04-03T01:04:45;3.22;;;2.92;;
10116;SDS011;5098;48.792;9.012;2023-04-03T01:07:14;5.25;;;3.47;;
10116;SDS011;5098;48.792;9.012;2023-04-03T01:09:41;4.15;;;3.20;;
10116;SDS011;5098;48.792;9.012;2023-04-03T01:12:18;3.95;;;3.10;;
10116;SDS011;5098;48.792;9.012;2023-04-03T01:14:45;3.28;;;2.97;;
10116;SDS011;5098;48.792;9.012;2023-04-03T01:17:55;3.80;;;3.40;;
10116;SDS011;5098;48.792;9.012;2023-04-03T01:23:27;3.90;;;2.90;;
10116;SDS011;5098;48.792;9.012;2023-04-03T01:25:26;3.83;;;2.85;;
10116;SDS011;5098;48.792;9.012;2023-04-03T01:27:52;3.35;;;2.92;;
10116;SDS011;5098;48.792;9.012;2023-04-03T01:30:19;4.10;;;3.35;;
10116;SDS011;5098;48.792;9.012;2023-04-03T01:32:45;3.17;;;2.88;;
10116;SDS011;5098;48.792;9.012;2023-04-03T01:35:12;3.65;;;3.15;;
10116;SDS011;5098;48.792;9.012;2023-04-03T01:37:38;3.08;;;2.78;;
10116;SDS011;5098;48.792;9.012;2023-04-03T01:40:04;3.05;;;2.75;;
10116;SDS011;5098;48.792;9.012;2023-04-03T01:42:31;6.68;;;3.50;;
10116;SDS011;5098;48.792;9.012;2023-04-03T01:44:57;3.85;;;2.95;;
10116;SDS011;5098;48.792;9.012;2023-04-03T01:47:23;4.45;;;3.60;;
10116;SDS011;5098;48.792;9.012;2023-04-03T01:49:49;5.28;;;3.17;;
10116;SDS011;5098;48.792;9.012;2023-04-03T01:52:15;3.63;;;2.95;;
10116;SDS011;5098;48.792;9.012;2023-04-03T01:54:41;3.20;;;2.90;;
10116;SDS011;5098;48.792;9.012;2023-04-03T01:57:07;4.47;;;3.30;;
10116;SDS011;5098;48.792;9.012;2023-04-03T01:59:33;4.15;;;3.00;;
10116;SDS011;5098;48.792;9.012;2023-04-03T02:01:59;3.08;;;2.78;;
10116;SDS011;5098;48.792;9.012;2023-04-03T02:04:26;3.40;;;3.10;;
10116;SDS011;5098;48.792;9.012;2023-04-03T02:06:52;4.00;;;3.10;;
10116;SDS011;5098;48.792;9.012;2023-04-03T02:09:20;3.05;;;2.80;;
10116;SDS011;5098;48.792;9.012;2023-04-03T02:11:49;3.67;;;3.35;;
10116;SDS011;5098;48.792;9.012;2023-04-03T02:14:15;6.47;;;3.30;;
10116;SDS011;5098;48.792;9.012;2023-04-03T02:16:41;3.97;;;2.42;;
10116;SDS011;5098;48.792;9.012;2023-04-03T02:19:07;5.32;;;3.72;;
10116;SDS011;5098;48.792;9.012;2023-04-03T02:21:33;4.50;;;3.13;;
10116;SDS011;5098;48.792;9.012;2023-04-03T02:23:59;3.92;;;2.97;;
10116;SDS011;5098;48.792;9.012;2023-04-03T02:26:26;4.10;;;3.38;;
10116;SDS011;5098;48.792;9.012;2023-04-03T02:28:52;3.40;;;3.10;;
10116;SDS011;5098;48.792;9.012;2023-04-03T02:31:18;3.95;;;3.05;;
10116;SDS011;5098;48.792;9.012;2023-04-03T02:33:44;3.80;;;3.50;;
10116;SDS011;5098;48.792;9.012;2023-04-03T02:36:10;5.45;;;3.63;;
10116;SDS011;5098;48.792;9.012;2023-04-03T02:38:36;4.32;;;3.92;;
10116;SDS011;5098;48.792;9.012;2023-04-03T02:41:03;3.35;;;2.90;;
10116;SDS011;5098;48.792;9.012;2023-04-03T02:43:29;4.25;;;3.80;;
10116;SDS011;5098;48.792;9.012;2023-04-03T02:45:55;8.52;;;4.07;;
10116;SDS011;5098;48.792;9.012;2023-04-03T02:48:21;4.60;;;3.30;;
10116;SDS011;5098;48.792;9.012;2023-04-03T02:50:48;3.85;;;3.42;;
10116;SDS011;5098;48.792;9.012;2023-04-03T02:53:14;3.80;;;3.50;;
10116;SDS011;5098;48.792;9.012;2023-04-03T02:55:40;4.72;;;3.75;;
10116;SDS011;5098;48.792;9.012;2023-04-03T02:58:06;6.03;;;3.60;;
10116;SDS011;5098;48.792;9.012;2023-04-03T03:00:33;3.72;;;3.42;;
10116;SDS011;5098;48.792;9.012;2023-04-03T03:02:59;4.65;;;3.83;;
10116;SDS011;5098;48.792;9.012;2023-04-03T03:05:25;6.25;;;4.15;;
10116;SDS011;5098;48.792;9.012;2023-04-03T03:07:52;5.30;;;3.40;;
10116;SDS011;5098;48.792;9.012;2023-04-03T03:10:18;3.47;;;3.00;;
10116;SDS011;5098;48.792;9.012;2023-04-03T03:12:44;4.85;;;3.05;;
10116;SDS011;5098;48.792;9.012;2023-04-03T03:15:11;3.60;;;2.95;;
10116;SDS011;5098;48.792;9.012;2023-04-03T03:17:37;3.60;;;3.30;;
10116;SDS011;5098;48.792;9.012;2023-04-03T03:20:04;8.48;;;3.80;;
10116;SDS011;5098;48.792;9.012;2023-04-03T03:22:30;6.65;;;3.45;;
10116;SDS011;5098;48.792;9.012;2023-04-03T03:24:56;3.60;;;3.30;;
10116;SDS011;5098;48.792;9.012;2023-04-03T03:27:22;4.07;;;3.03;;
10116;SDS011;5098;48.792;9.012;2023-04-03T03:29:48;4.75;;;3.05;;
10116;SDS011;5098;48.792;9.012;2023-04-03T03:32:15;3.92;;;3.55;;
10116;SDS011;5098;48.792;9.012;2023-04-03T03:34:41;4.30;;;3.35;;
10116;SDS011;5098;48.792;9.012;2023-04-03T03:37:07;3.40;;;2.95;;
10116;SDS011;5098;48.792;9.012;2023-04-03T03:39:33;4.20;;;3.28;;
10116;SDS011;5098;48.792;9.012;2023-04-03T03:41:59;3.53;;;3.22;;
10116;SDS011;5098;48.792;9.012;2023-04-03T03:44:25;4.95;;;3.17;;
10116;SDS011;5098;48.792;9.012;2023-04-03T03:46:53;3.03;;;2.83;;
10116;SDS011;5098;48.792;9.012;2023-04-03T03:49:20;5.45;;;2.60;;
10116;SDS011;5098;48.792;9.012;2023-04-03T03:51:46;3.30;;;2.92;;
10116;SDS011;5098;48.792;9.012;2023-04-03T03:54:12;3.42;;;2.95;;
10116;SDS011;5098;48.792;9.012;2023-04-03T03:56:39;7.88;;;2.90;;
10116;SDS011;5098;48.792;9.012;2023-04-03T03:59:05;3.33;;;3.03;;
10116;SDS011;5098;48.792;9.012;2023-04-03T04:01:31;3.10;;;2.80;;
10116;SDS011;5098;48.792;9.012;2023-04-03T04:03:57;3.30;;;3.00;;
10116;SDS011;5098;48.792;9.012;2023-04-03T04:06:24;4.80;;;3.20;;
10116;SDS011;5098;48.792;9.012;2023-04-03T04:08:51;5.03;;;2.70;;
10116;SDS011;5098;48.792;9.012;2023-04-03T04:11:17;2.95;;;2.65;;
10116;SDS011;5098;48.792;9.012;2023-04-03T04:13:43;3.60;;;3.30;;
10116;SDS011;5098;48.792;9.012;2023-04-03T04:16:10;5.10;;;3.60;;
10116;SDS011;5098;48.792;9.012;2023-04-03T04:18:36;4.20;;;3.53;;
10116;SDS011;5098;48.792;9.012;2023-04-03T04:21:02;4.45;;;3.65;;
10116;SDS011;5098;48.792;9.012;2023-04-03T04:23:28;5.03;;;2.88;;
10116;SDS011;5098;48.792;9.012;2023-04-03T04:25:54;3.85;;;2.90;;
10116;SDS011;5098;48.792;9.012;2023-04-03T04:28:20;3.53;;;2.80;;
10116;SDS011;5098;48.792;9.012;2023-04-03T04:30:46;4.28;;;3.75;;
10116;SDS011;5098;48.792;9.012;2023-04-03T04:33:12;4.38;;;2.67;;
10116;SDS011;5098;48.792;9.012;2023-04-03T04:35:42;5.32;;;2.72;;
10116;SDS011;5098;48.792;9.012;2023-04-03T04:38:08;3.55;;;2.65;;
10116;SDS011;5098;48.792;9.012;2023-04-03T04:40:34;3.70;;;2.90;;
10116;SDS011;5098;48.792;9.012;2023-04-03T04:43:02;3.50;;;3.20;;
10116;SDS011;5098;48.792;9.012;2023-04-03T04:45:28;4.82;;;3.30;;
10116;SDS011;5098;48.792;9.012;2023-04-03T04:47:55;3.88;;;3.55;;
10116;SDS011;5098;48.792;9.012;2023-04-03T04:50:21;3.60;;;3.30;;
10116;SDS011;5098;48.792;9.012;2023-04-03T04:52:47;3.33;;;2.70;;
10116;SDS011;5098;48.792;9.012;2023-04-03T04:55:13;3.78;;;3.40;;
10116;SDS011;5098;48.792;9.012;2023-04-03T04:57:39;2.97;;;2.70;;
10116;SDS011;5098;48.792;9.012;2023-04-03T05:00:13;2.80;;;2.55;;
10116;SDS011;5098;48.792;9.012;2023-04-03T05:02:39;4.75;;;2.60;;
10116;SDS011;5098;48.792;9.012;2023-04-03T05:05:05;4.72;;;3.22;;
10116;SDS011;5098;48.792;9.012;2023-04-03T05:07:31;2.70;;;2.50;;
10116;SDS011;5098;48.792;9.012;2023-04-03T05:09:57;3.00;;;2.70;;
10116;SDS011;5098;48.792;9.012;2023-04-03T05:12:24;6.70;;;3.30;;
10116;SDS011;5098;48.792;9.012;2023-04-03T05:14:50;3.78;;;3.00;;
10116;SDS011;5098;48.792;9.012;2023-04-03T05:17:16;3.00;;;2.55;;
10116;SDS011;5098;48.792;9.012;2023-04-03T05:19:42;4.47;;;2.90;;
10116;SDS011;5098;48.792;9.012;2023-04-03T05:22:08;3.47;;;3.10;;
10116;SDS011;5098;48.792;9.012;2023-04-03T05:24:34;3.70;;;3.20;;
10116;SDS011;5098;48.792;9.012;2023-04-03T05:27:01;3.17;;;2.70;;
10116;SDS011;5098;48.792;9.012;2023-04-03T05:29:27;3.20;;;2.70;;
10116;SDS011;5098;48.792;9.012;2023-04-03T05:31:53;3.55;;;3.25;;
10116;SDS011;5098;48.792;9.012;2023-04-03T05:34:19;3.30;;;2.92;;
10116;SDS011;5098;48.792;9.012;2023-04-03T05:36:45;3.22;;;2.78;;
10116;SDS011;5098;48.792;9.012;2023-04-03T05:39:11;4.93;;;2.83;;
10116;SDS011;5098;48.792;9.012;2023-04-03T05:41:37;3.75;;;2.80;;
10116;SDS011;5098;48.792;9.012;2023-04-03T05:44:03;3.35;;;2.70;;
10116;SDS011;5098;48.792;9.012;2023-04-03T05:46:29;3.35;;;2.55;;
10116;SDS011;5098;48.792;9.012;2023-04-03T05:48:56;2.80;;;2.45;;
10116;SDS011;5098;48.792;9.012;2023-04-03T05:51:25;2.60;;;2.40;;
10116;SDS011;5098;48.792;9.012;2023-04-03T05:53:56;2.75;;;2.55;;
10116;SDS011;5098;48.792;9.012;2023-04-03T05:56:23;3.67;;;2.88;;
10116;SDS011;5098;48.792;9.012;2023-04-03T05:58:50;2.97;;;2.67;;
10116;SDS011;5098;48.792;9.012;2023-04-03T06:01:16;3.47;;;2.72;;
10116;SDS011;5098;48.792;9.012;2023-04-03T06:03:42;3.90;;;2.50;;
10116;SDS011;5098;48.792;9.012;2023-04-03T06:06:12;3.20;;;2.60;;
10116;SDS011;5098;48.792;9.012;2023-04-03T06:08:38;2.70;;;2.50;;
10116;SDS011;5098;48.792;9.012;2023-04-03T06:11:05;2.60;;;2.40;;
10116;SDS011;5098;48.792;9.012;2023-04-03T06:13:31;4.20;;;3.00;;
10116;SDS011;5098;48.792;9.012;2023-04-03T06:15:58;4.00;;;2.70;;
10116;SDS011;5098;48.792;9.012;2023-04-03T06:18:25;3.30;;;3.00;;
10116;SDS011;5098;48.792;9.012;2023-04-03T06:20:51;3.25;;;2.95;;
10116;SDS011;5098;48.792;9.012;2023-04-03T06:23:17;4.30;;;2.80;;
10116;SDS011;5098;48.792;9.012;2023-04-03T06:25:43;3.53;;;3.20;;
10116;SDS011;5098;48.792;9.012;2023-04-03T06:28:09;5.13;;;2.88;;
10116;SDS011;5098;48.792;9.012;2023-04-03T06:30:36;3.75;;;2.95;;
10116;SDS011;5098;48.792;9.012;2023-04-03T06:33:02;3.15;;;2.85;;
10116;SDS011;5098;48.792;9.012;2023-04-03T06:35:29;2.90;;;2.10;;
10116;SDS011;5098;48.792;9.012;2023-04-03T06:37:55;3.00;;;2.67;;
10116;SDS011;5098;48.792;9.012;2023-04-03T06:40:22;3.30;;;2.13;;
10116;SDS011;5098;48.792;9.012;2023-04-03T06:42:51;2.70;;;2.50;;
10116;SDS011;5098;48.792;9.012;2023-04-03T06:45:17;3.63;;;2.75;;
10116;SDS011;5098;48.792;9.012;2023-04-03T06:47:44;3.20;;;2.50;;
10116;SDS011;5098;48.792;9.012;2023-04-03T06:50:11;2.72;;;2.50;;
10116;SDS011;5098;48.792;9.012;2023-04-03T06:52:39;3.63;;;3.00;;
10116;SDS011;5098;48.792;9.012;2023-04-03T06:55:05;3.83;;;3.05;;
10116;SDS011;5098;48.792;9.012;2023-04-03T06:57:31;3.40;;;2.38;;
10116;SDS011;5098;48.792;9.012;2023-04-03T06:59:57;2.58;;;2.38;;
10116;SDS011;5098;48.792;9.012;2023-04-03T07:02:23;3.30;;;2.60;;
10116;SDS011;5098;48.792;9.012;2023-04-03T07:04:49;2.58;;;2.38;;
10116;SDS011;5098;48.792;9.012;2023-04-03T07:07:15;3.03;;;2.75;;
10116;SDS011;5098;48.792;9.012;2023-04-03T07:09:42;5.72;;;2.63;;
10116;SDS011;5098;48.792;9.012;2023-04-03T07:12:08;2.60;;;2.40;;
10116;SDS011;5098;48.792;9.012;2023-04-03T07:14:34;2.50;;;2.30;;
10116;SDS011;5098;48.792;9.012;2023-04-03T07:17:01;10.65;;;2.40;;
10116;SDS011;5098;48.792;9.012;2023-04-03T07:19:27;3.13;;;2.20;;
10116;SDS011;5098;48.792;9.012;2023-04-03T07:21:53;7.57;;;2.75;;
10116;SDS011;5098;48.792;9.012;2023-04-03T07:24:20;4.28;;;2.90;;
10116;SDS011;5098;48.792;9.012;2023-04-03T07:26:49;3.47;;;2.15;;
10116;SDS011;5098;48.792;9.012;2023-04-03T07:29:15;3.78;;;2.58;;
10116;SDS011;5098;48.792;9.012;2023-04-03T07:31:41;6.43;;;2.65;;
10116;SDS011;5098;48.792;9.012;2023-04-03T07:34:07;3.58;;;3.28;;
10116;SDS011;5098;48.792;9.012;2023-04-03T07:36:33;3.45;;;2.40;;
10116;SDS011;5098;48.792;9.012;2023-04-03T07:38:59;3.83;;;3.00;;
10116;SDS011;5098;48.792;9.012;2023-04-03T07:41:26;2.05;;;1.95;;
10116;SDS011;5098;48.792;9.012;2023-04-03T07:43:52;5.65;;;3.40;;
10116;SDS011;5098;48.792;9.012;2023-04-03T07:46:18;2.90;;;2.70;;
10116;SDS011;5098;48.792;9.012;2023-04-03T07:48:45;6.82;;;2.80;;
10116;SDS011;5098;48.792;9.012;2023-04-03T07:51:11;3.25;;;2.95;;
10116;SDS011;5098;48.792;9.012;2023-04-03T07:53:38;4.57;;;2.70;;
10116;SDS011;5098;48.792;9.012;2023-04-03T07:56:04;4.10;;;2.10;;
10116;SDS011;5098;48.792;9.012;2023-04-03T07:58:31;2.35;;;2.15;;
10116;SDS011;5098;48.792;9.012;2023-04-03T08:00:57;3.50;;;3.20;;
10116;SDS011;5098;48.792;9.012;2023-04-03T08:03:23;4.30;;;2.47;;
10116;SDS011;5098;48.792;9.012;2023-04-03T08:05:49;4.45;;;2.80;;
10116;SDS011;5098;48.792;9.012;2023-04-03T08:08:20;5.55;;;2.92;;
10116;SDS011;5098;48.792;9.012;2023-04-03T08:10:53;3.20;;;2.65;;
10116;SDS011;5098;48.792;9.012;2023-04-03T08:13:22;4.00;;;2.53;;
10116;SDS011;5098;48.792;9.012;2023-04-03T08:15:48;3.22;;;2.90;;
10116;SDS011;5098;48.792;9.012;2023-04-03T08:18:15;3.35;;;2.42;;
10116;SDS011;5098;48.792;9.012;2023-04-03T08:20:41;4.70;;;2.50;;
10116;SDS011;5098;48.792;9.012;2023-04-03T08:23:10;2.90;;;2.55;;
10116;SDS011;5098;48.792;9.012;2023-04-03T08:25:39;2.67;;;2.42;;
10116;SDS011;5098;48.792;9.012;2023-04-03T08:28:06;3.25;;;2.70;;
10116;SDS011;5098;48.792;9.012;2023-04-03T08:30:34;4.10;;;3.00;;
10116;SDS011;5098;48.792;9.012;2023-04-03T08:33:01;3.33;;;2.35;;
10116;SDS011;5098;48.792;9.012;2023-04-03T08:35:27;4.63;;;3.00;;
10116;SDS011;5098;48.792;9.012;2023-04-03T08:37:53;6.20;;;3.05;;
10116;SDS011;5098;48.792;9.012;2023-04-03T08:40:20;3.35;;;3.05;;
10116;SDS011;5098;48.792;9.012;2023-04-03T08:45:16;3.55;;;2.53;;
10116;SDS011;5098;48.792;9.012;2023-04-03T08:50:14;5.68;;;3.05;;
10116;SDS011;5098;48.792;9.012;2023-04-03T08:52:42;2.60;;;2.40;;
10116;SDS011;5098;48.792;9.012;2023-04-03T08:55:17;4.95;;;3.42;;
10116;SDS011;5098;48.792;9.012;2023-04-03T08:57:45;5.32;;;3.13;;
10116;SDS011;5098;48.792;9.012;2023-04-03T09:02:47;3.75;;;3.08;;
10116;SDS011;5098;48.792;9.012;2023-04-03T09:05:36;3.22;;;2.80;;
10116;SDS011;5098;48.792;9.012;2023-04-03T09:08:04;3.65;;;2.85;;
10116;SDS011;5098;48.792;9.012;2023-04-03T09:10:32;4.43;;;3.50;;
10116;SDS011;5098;48.792;9.012;2023-04-03T09:15:44;4.07;;;2.53;;
10116;SDS011;5098;48.792;9.012;2023-04-03T09:26:14;4.65;;;2.72;;
10116;SDS011;5098;48.792;9.012;2023-04-03T09:28:42;4.57;;;2.55;;
10116;SDS011;5098;48.792;9.012;2023-04-03T09:31:19;4.40;;;2.28;;
10116;SDS011;5098;48.792;9.012;2023-04-03T09:33:47;3.20;;;2.60;;
10116;SDS011;5098;48.792;9.012;2023-04-03T09:36:59;3.65;;;2.90;;
10116;SDS011;5098;48.792;9.012;2023-04-03T09:39:09;2.55;;;1.92;;
10116;SDS011;5098;48.792;9.012;2023-04-03T09:41:38;3.50;;;2.35;;
10116;SDS011;5098;48.792;9.012;2023-04-03T09:44:17;4.20;;;2.60;;
10116;SDS011;5098;48.792;9.012;2023-04-03T09:46:46;2.60;;;2.20;;
10116;SDS011;5098;48.792;9.012;2023-04-03T09:49:12;2.92;;;1.95;;
10116;SDS011;5098;48.792;9.012;2023-04-03T09:51:41;3.10;;;2.45;;
10116;SDS011;5098;48.792;9.012;2023-04-03T09:56:53;3.70;;;2.80;;
10116;SDS011;5098;48.792;9.012;2023-04-03T09:59:20;3.58;;;2.53;;
10116;SDS011;5098;48.792;9.012;2023-04-03T10:01:57;4.55;;;2.63;;
10116;SDS011;5098;48.792;9.012;2023-04-03T10:04:24;5.55;;;2.53;;
10116;SDS011;5098;48.792;9.012;2023-04-03T10:06:54;2.95;;;2.30;;
10116;SDS011;5098;48.792;9.012;2023-04-03T10:09:24;2.85;;;2.40;;
10116;SDS011;5098;48.792;9.012;2023-04-03T10:14:23;2.88;;;2.03;;
10116;SDS011;5098;48.792;9.012;2023-04-03T10:19:55;2.13;;;1.92;;
10116;SDS011;5098;48.792;9.012;2023-04-03T10:27:26;2.95;;;2.30;;
10116;SDS011;5098;48.792;9.012;2023-04-03T10:29:55;13.77;;;3.35;;
10116;SDS011;5098;48.792;9.012;2023-04-03T10:35:44;2.13;;;1.92;;
10116;SDS011;5098;48.792;9.012;2023-04-03T10:37:51;2.95;;;2.03;;
10116;SDS011;5098;48.792;9.012;2023-04-03T10:40:30;3.03;;;2.30;;
10116;SDS011;5098;48.792;9.012;2023-04-03T10:43:02;1.92;;;1.77;;
10116;SDS011;5098;48.792;9.012;2023-04-03T10:58:29;5.80;;;2.10;;
10116;SDS011;5098;48.792;9.012;2023-04-03T11:00:57;2.20;;;1.95;;
10116;SDS011;5098;48.792;9.012;2023-04-03T11:05:55;2.78;;;2.20;;
10116;SDS011;5098;48.792;9.012;2023-04-03T11:11:09;3.88;;;2.30;;
10116;SDS011;5098;48.792;9.012;2023-04-03T11:13:39;3.15;;;1.92;;
10116;SDS011;5098;48.792;9.012;2023-04-03T11:16:06;2.03;;;1.52;;
10116;SDS011;5098;48.792;9.012;2023-04-03T11:24:17;1.67;;;1.40;;
10116;SDS011;5098;48.792;9.012;2023-04-03T11:26:45;4.00;;;1.98;;
10116;SDS011;5098;48.792;9.012;2023-04-03T11:29:13;4.20;;;1.75;;
10116;SDS011;5098;48.792;9.012;2023-04-03T11:36:53;2.50;;;2.03;;
10116;SDS011;5098;48.792;9.012;2023-04-03T11:39:39;3.88;;;2.58;;
10116;SDS011;5098;48.792;9.012;2023-04-03T11:42:52;2.05;;;1.65;;
10116;SDS011;5098;48.792;9.012;2023-04-03T11:45:15;4.60;;;2.20;;
10116;SDS011;5098;48.792;9.012;2023-04-03T11:52:59;4.93;;;2.30;;
10116;SDS011;5098;48.792;9.012;2023-04-03T12:11:30;3.58;;;2.30;;
10116;SDS011;5098;48.792;9.012;2023-04-03T12:16:04;2.55;;;2.25;;
10116;SDS011;5098;48.792;9.012;2023-04-03T12:21:13;2.35;;;2.05;;
10116;SDS011;5098;48.792;9.012;2023-04-03T12:24:03;3.65;;;1.90;;
10116;SDS011;5098;48.792;9.012;2023-04-03T12:29:27;1.80;;;1.70;;
10116;SDS011;5098;48.792;9.012;2023-04-03T12:34:40;12.93;;;2.20;;
10116;SDS011;5098;48.792;9.012;2023-04-03T12:40:30;4.03;;;1.88;;
10116;SDS011;5098;48.792;9.012;2023-04-03T12:47:37;2.63;;;2.20;;
10116;SDS011;5098;48.792;9.012;2023-04-03T12:50:16;3.47;;;1.63;;
10116;SDS011;5098;48.792;9.012;2023-04-03T12:52:45;2.47;;;1.90;;
10116;SDS011;5098;48.792;9.012;2023-04-03T12:55:15;2.00;;;1.60;;
10116;SDS011;5098;48.792;9.012;2023-04-03T12:57:41;2.38;;;1.88;;
10116;SDS011;5098;48.792;9.012;2023-04-03T13:03:06;2.20;;;1.70;;
10116;SDS011;5098;48.792;9.012;2023-04-03T13:05:44;4.38;;;1.85;;
10116;SDS011;5098;48.792;9.012;2023-04-03T13:08:12;4.13;;;2.08;;
10116;SDS011;5098;48.792;9.012;2023-04-03T13:11:14;2.00;;;1.80;;
10116;SDS011;5098;48.792;9.012;2023-04-03T13:13:33;2.15;;;1.50;;
10116;SDS011;5098;48.792;9.012;2023-04-03T13:15:59;3.63;;;1.92;;
10116;SDS011;5098;48.792;9.012;2023-04-03T13:18:34;2.53;;;1.92;;
10116;SDS011;5098;48.792;9.012;2023-04-03T13:21:03;2.22;;;2.00;;
10116;SDS011;5098;48.792;9.012;2023-04-03T13:23:29;3.22;;;2.00;;
10116;SDS011;5098;48.792;9.012;2023-04-03T13:25:56;2.65;;;2.25;;
10116;SDS011;5098;48.792;9.012;2023-04-03T13:28:26;2.22;;;2.03;;
10116;SDS011;5098;48.792;9.012;2023-04-03T13:30:57;4.07;;;2.28;;
10116;SDS011;5098;48.792;9.012;2023-04-03T13:33:25;5.43;;;2.20;;
10116;SDS011;5098;48.792;9.012;2023-04-03T13:35:56;4.57;;;2.53;;
10116;SDS011;5098;48.792;9.012;2023-04-03T13:38:27;5.55;;;1.95;;
10116;SDS011;5098;48.792;9.012;2023-04-03T13:40:57;6.53;;;2.45;;
10116;SDS011;5098;48.792;9.012;2023-04-03T13:43:29;3.15;;;1.75;;
10116;SDS011;5098;48.792;9.012;2023-04-03T13:46:00;3.22;;;1.70;;
10116;SDS011;5098;48.792;9.012;2023-04-03T13:48:34;2.97;;;2.38;;
10116;SDS011;5098;48.792;9.012;2023-04-03T13:51:02;2.35;;;2.15;;
10116;SDS011;5098;48.792;9.012;2023-04-03T13:53:29;4.80;;;2.38;;
10116;SDS011;5098;48.792;9.012;2023-04-03T13:58:26;3.40;;;2.15;;
10116;SDS011;5098;48.792;9.012;2023-04-03T14:00:59;2.40;;;1.95;;
10116;SDS011;5098;48.792;9.012;2023-04-03T14:03:30;4.47;;;2.25;;
10116;SDS011;5098;48.792;9.012;2023-04-03T14:05:57;2.20;;;1.70;;
10116;SDS011;5098;48.792;9.012;2023-04-03T14:08:30;3.05;;;2.05;;
10116;SDS011;5098;48.792;9.012;2023-04-03T14:10:56;2.65;;;2.20;;
10116;SDS011;5098;48.792;9.012;2023-04-03T14:13:22;3.47;;;2.00;;
10116;SDS011;5098;48.792;9.012;2023-04-03T14:15:48;3.33;;;2.20;;
10116;SDS011;5098;48.792;9.012;2023-04-03T14:18:17;2.42;;;1.90;;
10116;SDS011;5098;48.792;9.012;2023-04-03T14:20:44;2.60;;;2.22;;
10116;SDS011;5098;48.792;9.012;2023-04-03T14:23:10;2.15;;;1.80;;
10116;SDS011;5098;48.792;9.012;2023-04-03T14:25:36;5.60;;;2.20;;
10116;SDS011;5098;48.792;9.012;2023-04-03T14:28:14;7.82;;;2.00;;
10116;SDS011;5098;48.792;9.012;2023-04-03T14:30:41;2.45;;;1.85;;
10116;SDS011;5098;48.792;9.012;2023-04-03T14:33:09;4.13;;;1.55;;
10116;SDS011;5098;48.792;9.012;2023-04-03T14:35:36;2.22;;;2.00;;
10116;SDS011;5098;48.792;9.012;2023-04-03T14:38:02;3.13;;;2.00;;
10116;SDS011;5098;48.792;9.012;2023-04-03T14:40:31;2.33;;;2.10;;
10116;SDS011;5098;48.792;9.012;2023-04-03T14:42:57;3.17;;;2.05;;
10116;SDS011;5098;48.792;9.012;2023-04-03T14:45:24;3.08;;;1.42;;
10116;SDS011;5098;48.792;9.012;2023-04-03T14:47:52;2.90;;;2.00;;
10116;SDS011;5098;48.792;9.012;2023-04-03T14:50:20;3.58;;;2.20;;
10116;SDS011;5098;48.792;9.012;2023-04-03T14:52:47;3.00;;;2.30;;
10116;SDS011;5098;48.792;9.012;2023-04-03T14:55:15;2.20;;;2.00;;
10116;SDS011;5098;48.792;9.012;2023-04-03T14:57:41;5.15;;;1.95;;
10116;SDS011;5098;48.792;9.012;2023-04-03T15:00:11;2.72;;;2.20;;
10116;SDS011;5098;48.792;9.012;2023-04-03T15:02:38;4.18;;;2.42;;
10116;SDS011;5098;48.792;9.012;2023-04-03T15:05:06;2.60;;;1.95;;
10116;SDS011;5098;48.792;9.012;2023-04-03T15:07:41;3.10;;;1.92;;
10116;SDS011;5098;48.792;9.012;2023-04-03T15:12:40;1.92;;;1.75;;
10116;SDS011;5098;48.792;9.012;2023-04-03T15:15:06;3.10;;;1.97;;
10116;SDS011;5098;48.792;9.012;2023-04-03T15:17:32;4.03;;;2.03;;
10116;SDS011;5098;48.792;9.012;2023-04-03T15:19:59;2.47;;;1.83;;
10116;SDS011;5098;48.792;9.012;2023-04-03T15:22:26;3.10;;;1.70;;
10116;SDS011;5098;48.792;9.012;2023-04-03T15:24:52;3.27;;;2.10;;
10116;SDS011;5098;48.792;9.012;2023-04-03T15:27:18;2.90;;;2.00;;
10116;SDS011;5098;48.792;9.012;2023-04-03T15:29:44;3.00;;;1.90;;
10116;SDS011;5098;48.792;9.012;2023-04-03T15:32:11;4.17;;;2.30;;
10116;SDS011;5098;48.792;9.012;2023-04-03T15:34:37;2.90;;;1.80;;
10116;SDS011;5098;48.792;9.012;2023-04-03T15:37:04;2.30;;;2.00;;
10116;SDS011;5098;48.792;9.012;2023-04-03T15:39:30;2.10;;;1.90;;
10116;SDS011;5098;48.792;9.012;2023-04-03T15:41:56;2.60;;;1.83;;
10116;SDS011;5098;48.792;9.012;2023-04-03T15:44:28;3.10;;;2.20;;
10116;SDS011;5098;48.792;9.012;2023-04-03T15:46:54;2.10;;;1.90;;
10116;SDS011;5098;48.792;9.012;2023-04-03T15:49:20;3.03;;;1.97;;
10116;SDS011;5098;48.792;9.012;2023-04-03T15:51:47;4.30;;;2.30;;
10116;SDS011;5098;48.792;9.012;2023-04-03T15:54:13;2.27;;;1.93;;
10116;SDS011;5098;48.792;9.012;2023-04-03T15:56:39;3.07;;;2.20;;
10116;SDS011;5098;48.792;9.012;2023-04-03T15:59:05;2.30;;;2.05;;
10116;SDS011;5098;48.792;9.012;2023-04-03T16:01:31;3.25;;;2.00;;
10116;SDS011;5098;48.792;9.012;2023-04-03T16:03:57;2.53;;;2.33;;
10116;SDS011;5098;48.792;9.012;2023-04-03T16:06:24;3.28;;;2.08;;
10116;SDS011;5098;48.792;9.012;2023-04-03T16:08:51;2.95;;;2.10;;
10116;SDS011;5098;48.792;9.012;2023-04-03T16:11:21;3.15;;;2.05;;
10116;SDS011;5098;48.792;9.012;2023-04-03T16:13:48;3.28;;;2.13;;
10116;SDS011;5098;48.792;9.012;2023-04-03T16:16:14;2.70;;;2.30;;
10116;SDS011;5098;48.792;9.012;2023-04-03T16:18:40;2.75;;;1.80;;
10116;SDS011;5098;48.792;9.012;2023-04-03T16:21:06;3.55;;;2.40;;
10116;SDS011;5098;48.792;9.012;2023-04-03T16:23:33;4.10;;;2.90;;
10116;SDS011;5098;48.792;9.012;2023-04-03T16:25:59;3.60;;;2.10;;
10116;SDS011;5098;48.792;9.012;2023-04-03T16:28:26;2.57;;;2.37;;
10116;SDS011;5098;48.792;9.012;2023-04-03T16:30:52;4.40;;;3.77;;
10116;SDS011;5098;48.792;9.012;2023-04-03T16:33:18;2.83;;;2.30;;
10116;SDS011;5098;48.792;9.012;2023-04-03T16:35:46;4.07;;;1.93;;
10116;SDS011;5098;48.792;9.012;2023-04-03T16:38:13;8.10;;;4.33;;
10116;SDS011;5098;48.792;9.012;2023-04-03T16:40:40;2.00;;;1.70;;
10116;SDS011;5098;48.792;9.012;2023-04-03T16:43:06;4.70;;;1.97;;
10116;SDS011;5098;48.792;9.012;2023-04-03T16:45:32;1.93;;;1.83;;
10116;SDS011;5098;48.792;9.012;2023-04-03T16:47:58;4.20;;;2.47;;
10116;SDS011;5098;48.792;9.012;2023-04-03T16:50:24;3.25;;;2.22;;
10116;SDS011;5098;48.792;9.012;2023-04-03T16:52:51;4.82;;;3.08;;
10116;SDS011;5098;48.792;9.012;2023-04-03T16:55:17;3.22;;;1.88;;
10116;SDS011;5098;48.792;9.012;2023-04-03T16:57:43;3.13;;;2.25;;
10116;SDS011;5098;48.792;9.012;2023-04-03T17:00:09;2.53;;;2.33;;